Time;durP1;ratioP1;P1;durP2;ratioP2;P2;SDS_P1;SDS_P2;PMS_P1;PMS_P2;Temp;Humidity;BMP_temperature;BMP_pressure;BME280_temperature;BME280_humidity;BME280_pressure;Samples;Min_cycle;Max_cycle;Signal;HPM_P1;HPM_P2
2021/08/02 00:02:08;;;;;;;13.30;12.50;;;16.50;99.90;;;;;;4971951;28;20522;-68
2021/08/02 00:04:41;;;;;;;12.87;12.27;;;16.50;99.90;;;;;;4972214;28;20459;-68
2021/08/02 00:07:11;;;;;;;13.00;12.20;;;16.60;99.90;;;;;;4972344;28;20448;-68
2021/08/02 00:09:43;;;;;;;12.40;11.80;;;16.60;99.90;;;;;;4972445;28;20538;-68
2021/08/02 00:12:11;;;;;;;13.00;12.30;;;16.50;99.90;;;;;;4972263;28;20454;-67
2021/08/02 00:14:41;;;;;;;13.10;12.30;;;16.50;99.90;;;;;;4972139;28;20459;-67
2021/08/02 00:17:08;;;;;;;12.50;12.00;;;16.50;99.90;;;;;;4971910;28;20459;-70
2021/08/02 00:19:34;;;;;;;12.30;11.80;;;16.50;99.90;;;;;;4972034;28;20494;-69
2021/08/02 00:22:02;;;;;;;12.70;12.10;;;16.50;99.90;;;;;;4971965;28;20494;-69
2021/08/02 00:24:30;;;;;;;12.97;12.40;;;16.40;99.90;;;;;;4972259;28;20510;-69
2021/08/02 00:26:58;;;;;;;13.90;13.20;;;16.40;99.90;;;;;;4974074;28;20830;-69
2021/08/02 00:29:25;;;;;;;13.33;12.53;;;16.30;99.90;;;;;;4976124;28;20459;-69
2021/08/02 00:31:52;;;;;;;14.50;13.60;;;16.30;99.90;;;;;;4976050;28;20506;-69
2021/08/02 00:34:19;;;;;;;12.50;12.00;;;16.30;99.90;;;;;;4976027;28;20488;-69
2021/08/02 00:36:51;;;;;;;13.10;12.13;;;16.30;99.90;;;;;;4976042;28;20866;-69
2021/08/02 00:39:23;;;;;;;13.27;12.57;;;16.30;99.90;;;;;;4975752;28;20458;-69
2021/08/02 00:42:32;;;;;;;14.00;13.30;;;16.30;99.90;;;;;;4975920;28;20456;-70
2021/08/02 00:45:11;;;;;;;12.80;12.03;;;16.40;99.90;;;;;;4975680;28;20483;-67
2021/08/02 00:47:42;;;;;;;13.70;13.10;;;16.40;99.90;;;;;;4975748;28;20451;-67
2021/08/02 00:50:12;;;;;;;12.90;12.40;;;16.40;99.90;;;;;;4975994;28;20432;-70
2021/08/02 00:52:42;;;;;;;12.80;12.20;;;16.40;99.90;;;;;;4975652;28;20454;-67
2021/08/02 00:55:10;;;;;;;13.60;12.90;;;16.40;99.90;;;;;;4975415;28;20455;-67
2021/08/02 00:57:38;;;;;;;12.73;12.13;;;16.40;99.90;;;;;;4975825;28;20446;-68
2021/08/02 01:00:11;;;;;;;13.47;12.87;;;16.40;99.90;;;;;;4975468;28;20487;-67
2021/08/02 01:02:40;;;;;;;13.90;12.77;;;16.40;99.90;;;;;;4975348;28;20455;-67
2021/08/02 01:05:08;;;;;;;12.90;12.10;;;16.40;99.90;;;;;;4975714;28;20797;-70
2021/08/02 01:07:42;;;;;;;13.70;12.63;;;16.40;99.90;;;;;;4975345;28;20491;-67
2021/08/02 01:10:11;;;;;;;12.53;11.93;;;16.40;99.90;;;;;;4975502;28;20479;-68
2021/08/02 01:12:40;;;;;;;12.90;12.20;;;16.40;99.90;;;;;;4975436;28;20451;-68
2021/08/02 01:15:09;;;;;;;12.90;12.30;;;16.40;99.90;;;;;;4974995;28;20510;-69
2021/08/02 01:17:36;;;;;;;12.70;12.13;;;16.40;99.90;;;;;;4975141;28;20451;-68
2021/08/02 01:20:04;;;;;;;13.03;12.23;;;16.30;99.90;;;;;;4974916;28;20495;-68
2021/08/02 01:22:33;;;;;;;13.70;12.90;;;16.30;99.90;;;;;;4974794;28;20479;-68
2021/08/02 01:25:22;;;;;;;12.73;12.17;;;16.30;99.90;;;;;;4974870;28;20543;-68
2021/08/02 01:28:27;;;;;;;14.00;13.13;;;16.40;99.90;;;;;;4974858;28;20877;-68
2021/08/02 01:30:57;;;;;;;13.70;13.00;;;16.40;99.90;;;;;;4974949;28;20459;-68
2021/08/02 01:33:28;;;;;;;13.17;12.37;;;16.40;99.90;;;;;;4974767;28;20486;-69
2021/08/02 01:35:56;;;;;;;13.37;12.77;;;16.40;99.90;;;;;;4974568;28;20462;-68
2021/08/02 01:38:25;;;;;;;13.40;12.80;;;16.50;99.90;;;;;;4973575;28;20522;-68
2021/08/02 01:40:52;;;;;;;13.40;12.70;;;16.40;99.90;;;;;;4974505;28;20502;-70
2021/08/02 03:29:43;;;;;;;15.30;14.60;;;15.90;99.90;;;;;;5085747;23;21004;-68
2021/08/02 03:32:12;;;;;;;15.00;14.40;;;15.90;99.90;;;;;;5010657;28;20454;-69
2021/08/02 03:34:40;;;;;;;14.87;14.27;;;15.80;99.90;;;;;;5008563;28;20473;-67
2021/08/02 03:37:11;;;;;;;15.50;14.47;;;15.80;99.90;;;;;;5010664;28;20454;-69
2021/08/02 03:39:39;;;;;;;15.47;14.47;;;15.90;99.90;;;;;;5010658;28;20520;-70
2021/08/02 03:42:06;;;;;;;15.73;14.83;;;15.90;99.90;;;;;;5010661;28;20957;-70
2021/08/02 03:44:34;;;;;;;15.47;14.70;;;16.00;99.90;;;;;;5010432;28;20954;-69
2021/08/02 03:47:02;;;;;;;15.23;14.53;;;16.00;99.90;;;;;;5010408;28;21211;-69
2021/08/02 03:49:29;;;;;;;15.20;14.40;;;15.90;99.90;;;;;;5010645;28;20474;-69
2021/08/02 03:51:58;;;;;;;14.80;14.00;;;15.90;99.90;;;;;;5010583;28;20917;-70
2021/08/02 03:54:26;;;;;;;13.60;13.00;;;16.00;99.90;;;;;;5010755;28;20454;-70
2021/08/02 03:56:53;;;;;;;14.73;14.17;;;16.10;99.90;;;;;;5010564;28;20457;-70
2021/08/02 03:59:20;;;;;;;14.33;13.63;;;16.10;99.90;;;;;;5010106;28;20454;-69
2021/08/02 04:01:47;;;;;;;15.33;14.60;;;16.20;99.90;;;;;;5002744;28;20501;-69
2021/08/02 04:04:15;;;;;;;13.80;13.20;;;16.20;99.90;;;;;;4992728;28;20466;-69
2021/08/02 04:06:42;;;;;;;15.27;14.03;;;16.20;99.90;;;;;;4992919;28;20466;-69
2021/08/02 04:09:11;;;;;;;14.07;13.07;;;16.10;99.90;;;;;;4999508;28;20803;-69
2021/08/02 04:11:39;;;;;;;15.20;14.40;;;16.10;99.90;;;;;;4991212;28;20470;-69
2021/08/02 04:14:07;;;;;;;14.10;13.33;;;16.10;99.90;;;;;;4991180;28;20463;-70
2021/08/02 04:16:34;;;;;;;14.30;13.70;;;16.20;99.90;;;;;;4990549;28;20470;-70
2021/08/02 04:19:01;;;;;;;14.17;13.40;;;16.20;99.90;;;;;;4990691;28;20549;-70
2021/08/02 04:21:29;;;;;;;13.57;12.83;;;16.30;99.90;;;;;;4990822;28;20493;-70
2021/08/02 04:23:56;;;;;;;14.10;13.10;;;16.30;99.90;;;;;;4991094;28;20459;-69
2021/08/02 04:26:23;;;;;;;13.80;13.30;;;16.40;99.90;;;;;;4990932;28;20470;-69
2021/08/02 04:28:55;;;;;;;13.97;13.30;;;16.40;99.90;;;;;;4990386;28;20489;-70
2021/08/02 04:31:23;;;;;;;14.30;13.50;;;16.40;99.90;;;;;;4990913;28;20450;-69
2021/08/02 04:33:49;;;;;;;14.10;13.30;;;16.50;99.90;;;;;;4990871;28;20458;-70
2021/08/02 04:36:16;;;;;;;14.60;13.80;;;16.50;99.90;;;;;;4990673;28;20451;-70
2021/08/02 04:38:44;;;;;;;14.27;13.67;;;16.50;99.90;;;;;;4990665;28;20458;-70
2021/08/02 04:41:11;;;;;;;14.47;13.60;;;16.60;99.90;;;;;;4990684;28;20494;-70
2021/08/02 04:43:38;;;;;;;14.40;13.40;;;16.50;99.90;;;;;;4990578;28;20496;-70
2021/08/02 04:46:05;;;;;;;14.00;13.40;;;16.60;99.90;;;;;;4990667;28;20455;-70
2021/08/02 04:48:31;;;;;;;13.77;13.17;;;16.60;99.90;;;;;;4990586;28;20451;-70
2021/08/02 04:50:58;;;;;;;13.67;12.97;;;16.60;99.90;;;;;;4990480;28;20446;-70
2021/08/02 04:53:25;;;;;;;13.67;13.03;;;16.70;99.90;;;;;;4990493;28;20833;-70
2021/08/02 04:55:53;;;;;;;14.13;13.40;;;16.70;99.90;;;;;;4990964;28;20454;-70
2021/08/02 04:58:19;;;;;;;14.47;13.57;;;16.70;99.90;;;;;;4990507;28;20954;-69
2021/08/02 05:00:46;;;;;;;13.97;13.27;;;16.70;99.90;;;;;;4990097;28;21002;-69
2021/08/02 05:03:13;;;;;;;14.87;14.07;;;16.70;99.90;;;;;;4990618;28;20525;-70
2021/08/02 05:05:39;;;;;;;13.80;13.10;;;16.80;99.90;;;;;;4990450;28;20455;-70
2021/08/02 05:08:06;;;;;;;14.20;13.60;;;16.90;99.90;;;;;;4992864;28;20475;-70
2021/08/02 05:10:33;;;;;;;13.17;12.37;;;16.90;99.90;;;;;;4998196;28;20457;-70
2021/08/02 05:13:01;;;;;;;14.17;13.00;;;16.90;99.90;;;;;;4992173;28;20458;-70
2021/08/02 05:15:28;;;;;;;13.43;12.30;;;16.80;99.90;;;;;;4993720;28;20458;-70
2021/08/02 05:17:55;;;;;;;14.27;13.67;;;16.90;99.90;;;;;;4994006;28;20462;-70
2021/08/02 05:20:22;;;;;;;14.03;13.33;;;16.90;99.90;;;;;;4993900;28;20443;-70
2021/08/02 05:22:50;;;;;;;13.83;13.03;;;17.00;99.90;;;;;;4993758;28;20451;-70
2021/08/02 05:25:17;;;;;;;14.00;13.30;;;16.90;99.90;;;;;;4993373;28;20490;-70
2021/08/02 05:27:48;;;;;;;14.83;14.03;;;16.90;99.90;;;;;;4993598;28;20470;-71
2021/08/02 05:30:17;;;;;;;14.70;13.83;;;17.00;99.90;;;;;;4993457;28;20478;-69
2021/08/02 05:32:43;;;;;;;14.63;13.63;;;17.00;99.90;;;;;;4993401;28;20455;-71
2021/08/02 05:35:11;;;;;;;14.90;14.00;;;17.00;99.90;;;;;;4993862;28;20460;-70
2021/08/02 05:37:38;;;;;;;15.80;14.80;;;17.00;99.90;;;;;;4993653;28;20454;-70
2021/08/02 05:40:06;;;;;;;13.33;12.40;;;17.00;99.90;;;;;;4993627;28;20458;-70
2021/08/02 05:42:35;;;;;;;14.33;13.40;;;17.00;99.90;;;;;;4993103;28;20493;-68
2021/08/02 05:45:02;;;;;;;15.10;14.30;;;17.10;99.90;;;;;;4993242;28;21013;-69
2021/08/02 05:47:30;;;;;;;15.30;14.37;;;17.10;99.90;;;;;;4993466;28;20451;-76
2021/08/02 05:49:56;;;;;;;15.50;14.17;;;17.10;99.90;;;;;;4993375;28;20474;-70
2021/08/02 05:52:23;;;;;;;13.90;13.03;;;17.20;99.90;;;;;;4991767;28;20451;-70
2021/08/02 05:54:50;;;;;;;14.23;13.43;;;17.20;99.90;;;;;;4993162;28;20450;-72
2021/08/02 06:02:27;;;;;;;14.50;13.60;;;17.40;99.90;;;;;;4981407;23;20498;-71
2021/08/02 06:04:55;;;;;;;15.30;14.50;;;17.30;99.90;;;;;;4973870;28;21022;-70
2021/08/02 06:07:22;;;;;;;15.17;14.27;;;17.40;99.90;;;;;;4972976;28;20967;-70
2021/08/02 06:09:51;;;;;;;14.10;13.33;;;17.60;99.90;;;;;;4972989;28;20471;-69
2021/08/02 06:12:18;;;;;;;13.33;12.63;;;17.70;99.90;;;;;;4971196;28;20661;-70
2021/08/02 06:14:45;;;;;;;15.03;14.27;;;17.70;99.90;;;;;;4972503;28;20468;-69
2021/08/02 06:17:11;;;;;;;13.93;13.23;;;17.70;99.90;;;;;;4973127;28;20460;-70
2021/08/02 06:19:38;;;;;;;15.20;14.13;;;17.70;99.90;;;;;;4972950;28;20947;-70
2021/08/02 06:22:06;;;;;;;14.10;13.40;;;17.70;99.90;;;;;;4972430;28;21002;-70
2021/08/02 06:24:33;;;;;;;14.00;13.30;;;17.70;99.90;;;;;;4971962;28;20467;-70
2021/08/02 06:26:59;;;;;;;13.70;13.00;;;17.70;99.90;;;;;;4972377;28;20456;-70
2021/08/02 06:29:26;;;;;;;13.90;13.30;;;17.70;99.90;;;;;;4972608;28;20981;-69
2021/08/02 06:31:53;;;;;;;14.10;13.40;;;17.70;99.90;;;;;;4972726;28;20452;-70
2021/08/02 06:34:20;;;;;;;13.87;12.93;;;17.70;99.90;;;;;;4972181;28;20903;-69
2021/08/02 06:36:46;;;;;;;14.03;13.33;;;17.90;99.90;;;;;;4972185;28;20459;-69
2021/08/02 06:39:14;;;;;;;14.50;13.70;;;18.00;99.90;;;;;;4972295;28;20818;-70
2021/08/02 06:41:41;;;;;;;14.63;13.57;;;18.10;99.90;;;;;;4972440;28;20567;-71
2021/08/02 06:44:08;;;;;;;14.90;13.70;;;18.10;99.90;;;;;;4972414;28;20463;-70
2021/08/02 06:46:35;;;;;;;14.23;13.53;;;18.40;99.90;;;;;;4972087;28;20456;-71
2021/08/02 06:49:01;;;;;;;13.63;12.97;;;18.30;99.90;;;;;;4972354;28;20447;-70
2021/08/02 06:51:28;;;;;;;14.57;13.70;;;18.30;99.90;;;;;;4972165;28;20484;-70
2021/08/02 06:53:56;;;;;;;13.30;12.67;;;18.50;99.90;;;;;;4972290;28;20456;-71
2021/08/02 06:56:24;;;;;;;13.10;12.53;;;18.60;99.90;;;;;;4972470;28;20454;-71
2021/08/02 06:58:51;;;;;;;12.80;12.13;;;18.70;99.90;;;;;;4972193;28;20883;-71
2021/08/02 07:01:18;;;;;;;12.77;11.97;;;18.80;99.90;;;;;;4971845;28;20495;-71
2021/08/02 07:03:45;;;;;;;11.73;11.20;;;18.80;99.90;;;;;;4971973;28;20455;-72
2021/08/02 07:06:11;;;;;;;13.23;12.60;;;19.00;99.90;;;;;;4972109;28;20451;-71
2021/08/02 07:08:38;;;;;;;13.30;12.80;;;19.30;99.90;;;;;;4972248;28;20951;-71
2021/08/02 07:11:06;;;;;;;12.10;11.53;;;19.30;99.90;;;;;;4971863;28;20463;-71
2021/08/02 07:13:34;;;;;;;13.60;12.97;;;19.60;99.90;;;;;;4971777;28;20974;-71
2021/08/02 07:16:01;;;;;;;13.67;13.00;;;19.30;99.90;;;;;;4971679;28;20456;-71
2021/08/02 07:18:28;;;;;;;13.67;12.97;;;19.50;99.90;;;;;;4971738;28;20451;-71
2021/08/02 07:20:55;;;;;;;12.90;12.20;;;19.70;99.90;;;;;;4971884;28;20456;-72
2021/08/02 07:23:21;;;;;;;14.33;13.20;;;19.40;99.90;;;;;;4971776;28;20452;-71
2021/08/02 07:25:48;;;;;;;13.10;12.53;;;19.40;99.90;;;;;;4971488;28;20455;-71
2021/08/02 07:28:15;;;;;;;13.10;12.40;;;19.60;99.90;;;;;;4971596;28;20466;-71
2021/08/02 07:30:43;;;;;;;14.30;13.50;;;19.80;99.90;;;;;;4971307;28;20955;-70
2021/08/02 07:33:09;;;;;;;13.77;13.17;;;20.10;99.90;;;;;;4971556;28;20463;-70
2021/08/02 07:35:36;;;;;;;14.07;13.37;;;20.00;99.90;;;;;;4970564;28;20459;-70
2021/08/02 07:38:03;;;;;;;13.23;12.63;;;20.10;99.90;;;;;;4971342;28;20903;-70
2021/08/02 07:40:29;;;;;;;12.60;12.07;;;20.20;99.90;;;;;;4971228;28;20458;-70
2021/08/02 07:42:56;;;;;;;13.07;12.47;;;20.40;99.90;;;;;;4971321;28;20502;-71
2021/08/02 07:45:23;;;;;;;12.77;12.27;;;20.40;99.90;;;;;;4971372;28;20452;-70
2021/08/02 07:47:51;;;;;;;13.40;12.70;;;20.40;99.90;;;;;;4971426;28;20459;-70
2021/08/02 07:50:17;;;;;;;14.43;13.40;;;20.30;99.90;;;;;;4971153;28;20462;-70
2021/08/02 07:52:45;;;;;;;13.00;12.10;;;20.10;99.90;;;;;;4971096;28;20474;-70
2021/08/02 07:55:12;;;;;;;13.90;13.10;;;20.30;99.90;;;;;;4971127;28;20951;-70
2021/08/02 07:57:39;;;;;;;13.20;12.60;;;20.50;99.90;;;;;;4971402;28;20456;-70
2021/08/02 08:00:08;;;;;;;14.57;12.30;;;20.70;99.90;;;;;;4970824;28;21002;-70
2021/08/02 08:02:35;;;;;;;13.93;12.97;;;20.90;99.90;;;;;;4970854;28;21018;-70
2021/08/02 08:05:03;;;;;;;12.70;12.00;;;21.20;99.90;;;;;;4971228;28;20459;-71
2021/08/02 08:07:30;;;;;;;13.47;12.83;;;21.50;99.90;;;;;;4971064;28;20447;-70
2021/08/02 08:10:01;;;;;;;13.23;12.50;;;22.00;99.90;;;;;;4971155;28;20800;-71
2021/08/02 08:12:28;;;;;;;13.30;12.50;;;22.30;99.90;;;;;;4970941;28;20454;-70
2021/08/02 08:14:55;;;;;;;13.37;12.60;;;22.20;99.90;;;;;;4971206;28;20463;-71
2021/08/02 08:17:21;;;;;;;13.43;12.73;;;22.60;99.90;;;;;;4971005;28;20467;-71
2021/08/02 08:19:48;;;;;;;13.47;12.50;;;22.60;99.90;;;;;;4970961;28;20452;-70
2021/08/02 08:22:16;;;;;;;13.77;13.13;;;23.00;99.90;;;;;;4970956;28;20491;-70
2021/08/02 08:24:43;;;;;;;13.40;12.70;;;23.20;99.90;;;;;;4971018;28;20460;-70
2021/08/02 08:27:09;;;;;;;13.87;13.27;;;23.40;99.90;;;;;;4971076;28;20451;-70
2021/08/02 08:29:36;;;;;;;13.80;13.10;;;23.60;99.90;;;;;;4970677;28;20532;-70
2021/08/02 08:32:03;;;;;;;14.20;13.43;;;24.20;99.90;;;;;;4970767;28;20672;-71
2021/08/02 08:34:29;;;;;;;13.33;12.73;;;24.90;99.20;;;;;;4970982;28;20825;-71
2021/08/02 08:36:56;;;;;;;14.10;13.30;;;25.00;98.50;;;;;;4971020;28;20522;-71
2021/08/02 08:39:24;;;;;;;14.23;13.60;;;24.30;99.40;;;;;;4971063;28;20458;-72
2021/08/02 08:41:52;;;;;;;12.70;12.20;;;24.40;99.70;;;;;;4970628;28;20494;-73
2021/08/02 08:44:20;;;;;;;12.93;12.40;;;24.80;98.60;;;;;;4970769;28;20504;-72
2021/08/02 08:46:47;;;;;;;12.83;12.23;;;25.20;98.10;;;;;;4970836;28;20451;-73
2021/08/02 08:49:13;;;;;;;14.63;13.93;;;26.30;96.60;;;;;;4974524;28;20455;-73
2021/08/02 08:51:41;;;;;;;13.37;12.83;;;27.20;93.30;;;;;;4974767;28;20454;-73
2021/08/02 08:54:08;;;;;;;15.27;14.53;;;26.70;93.50;;;;;;4974533;28;20474;-73
2021/08/02 08:56:36;;;;;;;14.00;13.50;;;27.20;92.30;;;;;;4974481;28;20796;-74
2021/08/02 08:59:03;;;;;;;15.13;14.33;;;26.90;92.60;;;;;;4974139;28;20479;-73
2021/08/02 09:01:31;;;;;;;14.20;13.40;;;27.00;92.50;;;;;;4973904;28;20503;-72
2021/08/02 09:04:01;;;;;;;13.20;12.57;;;26.80;92.60;;;;;;4974062;28;20463;-73
2021/08/02 09:06:28;;;;;;;14.07;13.47;;;25.60;93.90;;;;;;4973975;28;20451;-73
2021/08/02 09:08:55;;;;;;;14.23;13.73;;;25.30;94.10;;;;;;4974528;28;20452;-73
2021/08/02 09:11:24;;;;;;;14.57;13.87;;;25.30;94.20;;;;;;4974302;28;20451;-73
2021/08/02 09:13:53;;;;;;;13.73;12.80;;;25.60;94.20;;;;;;4974193;28;20455;-73
2021/08/02 09:16:22;;;;;;;14.57;13.87;;;25.20;94.70;;;;;;4973872;28;20458;-73
2021/08/02 09:18:59;;;;;;;14.50;13.90;;;25.00;95.20;;;;;;4974036;28;20447;-73
2021/08/02 09:21:26;;;;;;;14.07;13.27;;;25.00;95.20;;;;;;4974222;28;20455;-74
2021/08/02 09:23:55;;;;;;;13.00;12.50;;;25.30;94.80;;;;;;4974062;28;20451;-73
2021/08/02 09:26:32;;;;;;;13.10;12.60;;;25.30;92.80;;;;;;4973970;28;20466;-73
2021/08/02 09:29:01;;;;;;;13.50;12.80;;;25.10;93.00;;;;;;4973631;28;20466;-73
2021/08/02 09:31:38;;;;;;;13.20;12.70;;;25.90;92.60;;;;;;4973631;28;20451;-73
2021/08/02 09:34:07;;;;;;;13.37;12.80;;;26.50;91.40;;;;;;4973684;28;20475;-73
2021/08/02 09:36:41;;;;;;;14.13;13.50;;;28.20;89.30;;;;;;4973632;28;20458;-73
2021/08/02 09:39:09;;;;;;;14.23;13.57;;;29.70;83.40;;;;;;4973985;28;20443;-70
2021/08/02 20:15:22;;;;;;;11.10;10.60;;;17.50;99.90;;;;;;5225392;23;20493;-69
2021/08/02 20:17:50;;;;;;;11.37;10.97;;;17.40;99.90;;;;;;5001030;28;20868;-69
2021/08/02 20:20:16;;;;;;;11.60;11.10;;;17.40;99.90;;;;;;5006858;28;20449;-70
2021/08/02 20:22:51;;;;;;;11.80;11.20;;;17.40;99.90;;;;;;5010130;28;20489;-70
2021/08/02 20:25:22;;;;;;;10.60;10.10;;;17.30;99.90;;;;;;5010295;28;20434;-69
2021/08/02 20:27:56;;;;;;;10.83;10.33;;;17.30;99.90;;;;;;5010241;28;20456;-69
2021/08/02 20:30:26;;;;;;;11.53;11.03;;;17.20;99.90;;;;;;5010330;28;20858;-69
2021/08/02 20:32:53;;;;;;;11.23;10.73;;;17.10;99.90;;;;;;5010252;28;20442;-69
2021/08/02 20:35:21;;;;;;;11.47;10.90;;;17.00;99.90;;;;;;5010143;28;20504;-69
2021/08/02 20:37:51;;;;;;;10.93;10.20;;;17.00;99.90;;;;;;5010268;28;20485;-69
2021/08/02 20:40:17;;;;;;;11.43;10.93;;;16.90;99.90;;;;;;4989964;28;21005;-70
2021/08/02 20:42:46;;;;;;;10.27;9.87;;;16.80;99.90;;;;;;4990159;28;20536;-70
2021/08/02 20:45:14;;;;;;;11.00;10.47;;;16.80;99.90;;;;;;4994352;28;20455;-70
2021/08/02 20:47:44;;;;;;;11.80;11.30;;;16.80;99.90;;;;;;4994367;28;20458;-70
2021/08/02 20:50:12;;;;;;;10.43;10.00;;;16.80;99.90;;;;;;4994402;28;20455;-70
2021/08/02 20:52:40;;;;;;;10.77;10.37;;;16.60;99.90;;;;;;4993933;28;20454;-69
2021/08/02 20:55:08;;;;;;;11.00;10.60;;;16.60;99.90;;;;;;4994409;28;20526;-70
2021/08/02 20:57:36;;;;;;;10.17;9.77;;;16.50;99.90;;;;;;4994013;28;20461;-69
2021/08/02 21:00:07;;;;;;;10.67;10.27;;;16.50;99.90;;;;;;4994168;28;20459;-69
2021/08/02 21:02:44;;;;;;;10.80;10.40;;;16.40;99.90;;;;;;4994022;28;20490;-70
2021/08/02 21:05:13;;;;;;;10.47;9.97;;;16.40;99.90;;;;;;4993967;28;20549;-70
2021/08/02 21:07:45;;;;;;;10.33;9.93;;;16.40;99.90;;;;;;4994249;28;20505;-70
2021/08/02 21:10:19;;;;;;;10.23;9.90;;;16.40;99.90;;;;;;4994031;28;20594;-69
2021/08/02 21:12:56;;;;;;;9.97;9.60;;;16.30;99.90;;;;;;4993679;28;20470;-68
2021/08/02 21:15:23;;;;;;;10.80;10.40;;;16.30;99.90;;;;;;4993893;28;20482;-70
2021/08/02 21:17:55;;;;;;;11.80;11.20;;;16.30;99.90;;;;;;4993650;28;20455;-70
2021/08/02 21:20:22;;;;;;;10.73;10.27;;;16.30;99.90;;;;;;4993820;28;20450;-70
2021/08/02 21:22:55;;;;;;;10.87;10.30;;;16.30;99.90;;;;;;4993434;28;20483;-70
2021/08/02 21:25:25;;;;;;;10.70;10.20;;;16.30;99.90;;;;;;4993730;28;20450;-69
2021/08/02 21:27:59;;;;;;;11.60;10.90;;;16.20;99.90;;;;;;4993337;28;20454;-69
2021/08/02 21:30:26;;;;;;;12.40;11.50;;;16.20;99.90;;;;;;4993657;28;20487;-69
2021/08/02 21:32:54;;;;;;;12.20;11.37;;;16.10;99.90;;;;;;4993544;28;20450;-69
2021/08/02 21:35:20;;;;;;;11.40;10.80;;;16.10;99.90;;;;;;4993223;28;20451;-70
2021/08/02 21:37:47;;;;;;;12.13;11.50;;;16.10;99.90;;;;;;4993274;28;20462;-69
2021/08/02 21:40:17;;;;;;;11.40;11.00;;;16.00;99.90;;;;;;4993323;28;21016;-69
2021/08/02 21:42:44;;;;;;;12.07;11.57;;;16.00;99.90;;;;;;4993102;28;20499;-69
2021/08/02 21:45:12;;;;;;;11.60;11.10;;;15.90;99.90;;;;;;4993071;28;20537;-69
2021/08/02 21:47:38;;;;;;;11.80;11.30;;;15.90;99.90;;;;;;4993118;28;20450;-69
2021/08/02 21:50:08;;;;;;;11.27;10.77;;;15.80;99.90;;;;;;4993301;28;20829;-69
2021/08/02 21:52:34;;;;;;;11.37;10.97;;;15.80;99.90;;;;;;4993279;28;20458;-69
2021/08/02 21:55:01;;;;;;;13.20;12.70;;;15.80;99.90;;;;;;4991785;28;20453;-69
2021/08/02 21:57:29;;;;;;;13.10;12.50;;;15.90;99.90;;;;;;4992949;28;20454;-69
2021/08/02 21:59:56;;;;;;;12.97;12.40;;;15.80;99.90;;;;;;4992828;28;20455;-69
2021/08/02 22:02:22;;;;;;;13.00;12.40;;;15.80;99.90;;;;;;4993129;28;20815;-69
2021/08/02 22:04:49;;;;;;;12.97;12.13;;;15.80;99.90;;;;;;4992977;28;20451;-69
2021/08/02 22:07:17;;;;;;;13.07;12.23;;;15.80;99.90;;;;;;4993257;28;20509;-69
2021/08/02 22:09:44;;;;;;;13.70;13.00;;;15.80;99.90;;;;;;4992477;28;20455;-69
2021/08/02 22:12:10;;;;;;;12.13;11.60;;;15.80;99.90;;;;;;4993088;28;20450;-69
2021/08/02 22:14:37;;;;;;;13.23;12.63;;;15.80;99.90;;;;;;4992795;28;20455;-69
2021/08/02 22:17:04;;;;;;;12.13;11.63;;;15.80;99.90;;;;;;4992557;28;20485;-69
2021/08/02 22:19:31;;;;;;;12.17;11.37;;;15.70;99.90;;;;;;4992661;28;20949;-69
2021/08/02 22:21:58;;;;;;;11.43;10.93;;;15.70;99.90;;;;;;4992339;28;20455;-69
2021/08/02 22:24:26;;;;;;;11.77;11.27;;;15.70;99.90;;;;;;4992416;28;20498;-69
2021/08/02 22:26:53;;;;;;;12.10;11.50;;;15.70;99.90;;;;;;4992437;28;20468;-69
2021/08/02 22:29:20;;;;;;;11.23;10.80;;;15.70;99.90;;;;;;4992388;28;20562;-69
2021/08/02 22:31:47;;;;;;;12.13;11.57;;;15.70;99.90;;;;;;4992138;28;20462;-69
2021/08/02 22:34:14;;;;;;;12.90;12.30;;;15.70;99.90;;;;;;4992098;28;20451;-69
2021/08/02 22:36:40;;;;;;;12.60;12.00;;;15.70;99.90;;;;;;4992030;28;20454;-69
2021/08/02 22:39:09;;;;;;;13.33;12.63;;;15.70;99.90;;;;;;4992373;28;20525;-69
2021/08/02 22:41:41;;;;;;;12.57;11.60;;;15.60;99.90;;;;;;4991850;28;20506;-69
2021/08/02 22:44:10;;;;;;;12.80;12.30;;;15.60;99.90;;;;;;4992416;28;20556;-69
2021/08/02 22:46:37;;;;;;;14.10;13.40;;;15.60;99.90;;;;;;4992244;28;20877;-69
2021/08/02 22:49:04;;;;;;;14.60;13.77;;;15.50;99.90;;;;;;4992079;28;20451;-69
2021/08/02 22:51:31;;;;;;;14.10;13.30;;;15.50;99.90;;;;;;4991865;28;21005;-69
2021/08/02 22:53:59;;;;;;;14.17;13.43;;;15.40;99.90;;;;;;4991737;28;20535;-71
2021/08/02 22:56:28;;;;;;;13.83;13.03;;;15.40;99.90;;;;;;4991792;28;20534;-69
2021/08/02 22:58:57;;;;;;;13.00;12.50;;;15.40;99.90;;;;;;4991716;28;20458;-68
2021/08/02 23:01:24;;;;;;;13.50;12.90;;;15.40;99.90;;;;;;4992143;28;20454;-68
2021/08/02 23:03:53;;;;;;;12.47;11.87;;;15.30;99.90;;;;;;4991561;28;20545;-68
2021/08/02 23:06:25;;;;;;;11.83;11.30;;;15.30;99.90;;;;;;4989810;28;20541;-69
2021/08/02 23:08:55;;;;;;;12.50;11.90;;;15.30;99.90;;;;;;4989015;28;20448;-68
2021/08/02 23:11:23;;;;;;;12.73;12.13;;;15.40;99.90;;;;;;4991980;28;20235;-68
2021/08/02 23:13:52;;;;;;;12.83;12.13;;;15.40;99.90;;;;;;4991541;28;20467;-71
2021/08/02 23:16:23;;;;;;;12.30;11.70;;;15.40;99.90;;;;;;4991438;28;20577;-70
